sensor_id;sensor_type;location;lat;lon;timestamp;pressure;altitude;pressure_sealevel;temperature;humidity
80335;BME280;69653;52.674;13.574;2023-07-22T00:00:53;100244.25;;;11.62;95.51
80335;BME280;69653;52.674;13.574;2023-07-22T00:03:18;100238.47;;;11.63;95.85
80335;BME280;69653;52.674;13.574;2023-07-22T00:05:44;100243.69;;;11.74;95.98
80335;BME280;69653;52.674;13.574;2023-07-22T00:08:09;100235.00;;;11.80;95.56
80335;BME280;69653;52.674;13.574;2023-07-22T00:10:34;100231.31;;;11.85;95.60
80335;BME280;69653;52.674;13.574;2023-07-22T00:13:00;100228.28;;;11.86;95.64
80335;BME280;69653;52.674;13.574;2023-07-22T00:15:26;100250.69;;;11.88;94.70
80335;BME280;69653;52.674;13.574;2023-07-22T00:17:51;100224.88;;;11.81;95.21
80335;BME280;69653;52.674;13.574;2023-07-22T00:20:17;100238.13;;;11.87;94.98
80335;BME280;69653;52.674;13.574;2023-07-22T00:22:42;100227.13;;;11.79;94.75
80335;BME280;69653;52.674;13.574;2023-07-22T00:25:10;100231.50;;;11.80;95.12
80335;BME280;69653;52.674;13.574;2023-07-22T00:27:37;100233.06;;;11.81;94.90
80335;BME280;69653;52.674;13.574;2023-07-22T00:30:05;100244.38;;;11.88;95.33
80335;BME280;69653;52.674;13.574;2023-07-22T00:32:30;100244.88;;;11.90;95.71
80335;BME280;69653;52.674;13.574;2023-07-22T00:34:55;100243.63;;;11.96;95.46
80335;BME280;69653;52.674;13.574;2023-07-22T00:37:21;100245.44;;;12.09;95.26
80335;BME280;69653;52.674;13.574;2023-07-22T00:39:46;100241.22;;;12.03;95.28
80335;BME280;69653;52.674;13.574;2023-07-22T00:42:12;100229.44;;;12.02;95.08
80335;BME280;69653;52.674;13.574;2023-07-22T00:44:37;100234.97;;;12.11;95.37
80335;BME280;69653;52.674;13.574;2023-07-22T00:47:03;100233.53;;;12.22;95.27
80335;BME280;69653;52.674;13.574;2023-07-22T00:49:29;100220.94;;;12.21;95.08
80335;BME280;69653;52.674;13.574;2023-07-22T00:51:58;100219.50;;;12.24;95.09
80335;BME280;69653;52.674;13.574;2023-07-22T00:54:26;100249.06;;;12.35;94.66
80335;BME280;69653;52.674;13.574;2023-07-22T00:56:52;100244.56;;;12.39;94.81
80335;BME280;69653;52.674;13.574;2023-07-22T00:59:19;100238.69;;;12.32;94.48
80335;BME280;69653;52.674;13.574;2023-07-22T01:01:44;100265.53;;;12.52;95.05
80335;BME280;69653;52.674;13.574;2023-07-22T01:04:10;100242.59;;;12.48;94.73
80335;BME280;69653;52.674;13.574;2023-07-22T01:06:35;100232.94;;;12.42;94.61
80335;BME280;69653;52.674;13.574;2023-07-22T01:09:01;100238.25;;;12.47;94.39
80335;BME280;69653;52.674;13.574;2023-07-22T01:11:26;100248.28;;;12.60;94.26
80335;BME280;69653;52.674;13.574;2023-07-22T01:13:52;100230.03;;;12.47;94.24
80335;BME280;69653;52.674;13.574;2023-07-22T01:16:24;100236.47;;;12.51;94.28
80335;BME280;69653;52.674;13.574;2023-07-22T01:18:49;100230.03;;;12.47;94.40
80335;BME280;69653;52.674;13.574;2023-07-22T01:21:15;100251.19;;;12.64;94.12
80335;BME280;69653;52.674;13.574;2023-07-22T01:23:41;100235.66;;;12.51;94.23
80335;BME280;69653;52.674;13.574;2023-07-22T01:26:07;100253.59;;;12.65;94.22
80335;BME280;69653;52.674;13.574;2023-07-22T01:28:35;100222.94;;;12.46;94.27
80335;BME280;69653;52.674;13.574;2023-07-22T01:31:01;100227.78;;;12.49;94.12
80335;BME280;69653;52.674;13.574;2023-07-22T01:33:26;100258.44;;;12.69;94.28
80335;BME280;69653;52.674;13.574;2023-07-22T01:35:52;100227.13;;;12.52;94.14
80335;BME280;69653;52.674;13.574;2023-07-22T01:38:18;100236.00;;;12.49;94.11
80335;BME280;69653;52.674;13.574;2023-07-22T01:40:44;100262.78;;;12.70;93.96
80335;BME280;69653;52.674;13.574;2023-07-22T01:43:09;100232.63;;;12.52;94.26
80335;BME280;69653;52.674;13.574;2023-07-22T01:45:35;100224.53;;;12.47;93.93
80335;BME280;69653;52.674;13.574;2023-07-22T01:48:00;100232.44;;;12.49;94.10
80335;BME280;69653;52.674;13.574;2023-07-22T01:50:25;100232.91;;;12.51;93.89
80335;BME280;69653;52.674;13.574;2023-07-22T01:52:51;100264.09;;;12.72;93.72
80335;BME280;69653;52.674;13.574;2023-07-22T01:55:17;100241.34;;;12.63;93.31
80335;BME280;69653;52.674;13.574;2023-07-22T01:57:43;100263.75;;;12.74;93.40
80335;BME280;69653;52.674;13.574;2023-07-22T02:00:09;100237.78;;;12.54;93.56
80335;BME280;69653;52.674;13.574;2023-07-22T02:02:36;100237.78;;;12.54;93.76
80335;BME280;69653;52.674;13.574;2023-07-22T02:05:02;100229.22;;;12.47;94.07
80335;BME280;69653;52.674;13.574;2023-07-22T02:07:27;100230.03;;;12.47;93.94
80335;BME280;69653;52.674;13.574;2023-07-22T02:09:54;100208.56;;;12.41;93.60
80335;BME280;69653;52.674;13.574;2023-07-22T02:12:19;100237.63;;;12.59;93.44
80335;BME280;69653;52.674;13.574;2023-07-22T02:14:45;100226.00;;;12.45;93.57
80335;BME280;69653;52.674;13.574;2023-07-22T02:17:11;100236.81;;;12.50;93.69
80335;BME280;69653;52.674;13.574;2023-07-22T02:19:36;100258.09;;;12.53;93.74
80335;BME280;69653;52.674;13.574;2023-07-22T02:22:03;100247.94;;;12.53;93.78
80335;BME280;69653;52.674;13.574;2023-07-22T02:24:28;100284.56;;;12.66;93.61
80335;BME280;69653;52.674;13.574;2023-07-22T02:26:54;100259.91;;;12.57;93.70
80335;BME280;69653;52.674;13.574;2023-07-22T02:29:19;100278.28;;;12.65;93.66
80335;BME280;69653;52.674;13.574;2023-07-22T02:31:45;100279.25;;;12.61;93.75
80335;BME280;69653;52.674;13.574;2023-07-22T02:34:11;100274.09;;;12.68;93.24
80335;BME280;69653;52.674;13.574;2023-07-22T02:36:37;100278.63;;;12.73;92.77
80335;BME280;69653;52.674;13.574;2023-07-22T02:39:02;100286.22;;;12.76;92.58
80335;BME280;69653;52.674;13.574;2023-07-22T02:41:28;100289.44;;;12.69;92.87
80335;BME280;69653;52.674;13.574;2023-07-22T02:43:54;100288.78;;;12.63;92.84
80335;BME280;69653;52.674;13.574;2023-07-22T02:46:19;100291.22;;;12.65;92.82
80335;BME280;69653;52.674;13.574;2023-07-22T02:48:44;100289.59;;;12.64;92.59
80335;BME280;69653;52.674;13.574;2023-07-22T02:51:10;100294.44;;;12.67;92.23
80335;BME280;69653;52.674;13.574;2023-07-22T02:53:38;100288.75;;;12.46;92.50
80335;BME280;69653;52.674;13.574;2023-07-22T02:56:06;100301.31;;;12.47;92.64
80335;BME280;69653;52.674;13.574;2023-07-22T02:58:32;100303.91;;;12.44;92.46
80335;BME280;69653;52.674;13.574;2023-07-22T03:00:58;100320.84;;;12.46;92.86
80335;BME280;69653;52.674;13.574;2023-07-22T03:03:24;100306.81;;;12.39;93.27
80335;BME280;69653;52.674;13.574;2023-07-22T03:05:49;100324.06;;;12.39;92.82
80335;BME280;69653;52.674;13.574;2023-07-22T03:08:15;100306.78;;;12.30;93.05
80335;BME280;69653;52.674;13.574;2023-07-22T03:10:40;100320.16;;;12.32;92.97
80335;BME280;69653;52.674;13.574;2023-07-22T03:13:06;100305.31;;;12.33;93.08
80335;BME280;69653;52.674;13.574;2023-07-22T03:15:32;100326.59;;;12.36;93.02
80335;BME280;69653;52.674;13.574;2023-07-22T03:17:58;100328.56;;;12.35;93.42
80335;BME280;69653;52.674;13.574;2023-07-22T03:20:26;100316.91;;;12.30;93.20
80335;BME280;69653;52.674;13.574;2023-07-22T03:22:52;100334.88;;;12.44;93.27
80335;BME280;69653;52.674;13.574;2023-07-22T03:25:17;100338.91;;;12.47;93.25
80335;BME280;69653;52.674;13.574;2023-07-22T03:27:43;100327.47;;;12.53;92.58
80335;BME280;69653;52.674;13.574;2023-07-22T03:30:12;100342.66;;;12.59;92.40
80335;BME280;69653;52.674;13.574;2023-07-22T03:32:40;100347.38;;;12.68;92.45
80335;BME280;69653;52.674;13.574;2023-07-22T03:35:07;100328.13;;;12.50;92.29
80335;BME280;69653;52.674;13.574;2023-07-22T03:37:34;100312.59;;;12.37;91.87
80335;BME280;69653;52.674;13.574;2023-07-22T03:40:02;100330.03;;;12.41;92.00
80335;BME280;69653;52.674;13.574;2023-07-22T03:42:27;100343.59;;;12.55;91.67
80335;BME280;69653;52.674;13.574;2023-07-22T03:44:53;100345.69;;;12.49;91.71
80335;BME280;69653;52.674;13.574;2023-07-22T03:47:19;100341.66;;;12.47;91.81
80335;BME280;69653;52.674;13.574;2023-07-22T03:49:44;100338.09;;;12.38;92.25
80335;BME280;69653;52.674;13.574;2023-07-22T03:52:10;100346.34;;;12.46;92.54
80335;BME280;69653;52.674;13.574;2023-07-22T03:54:39;100352.13;;;12.45;92.18
80335;BME280;69653;52.674;13.574;2023-07-22T03:57:05;100353.59;;;12.51;91.98
80335;BME280;69653;52.674;13.574;2023-07-22T03:59:31;100367.31;;;12.51;91.69
80335;BME280;69653;52.674;13.574;2023-07-22T04:01:56;100383.94;;;12.54;92.26
80335;BME280;69653;52.674;13.574;2023-07-22T04:04:22;100364.06;;;12.40;92.57
80335;BME280;69653;52.674;13.574;2023-07-22T04:06:47;100352.56;;;12.30;92.43
80335;BME280;69653;52.674;13.574;2023-07-22T04:09:12;100354.50;;;12.29;92.52
80335;BME280;69653;52.674;13.574;2023-07-22T04:11:38;100350.63;;;12.30;92.79
80335;BME280;69653;52.674;13.574;2023-07-22T04:14:03;100361.91;;;12.29;92.34
80335;BME280;69653;52.674;13.574;2023-07-22T04:16:28;100364.81;;;12.32;92.09
80335;BME280;69653;52.674;13.574;2023-07-22T04:18:54;100357.56;;;12.28;92.44
80335;BME280;69653;52.674;13.574;2023-07-22T04:21:19;100360.78;;;12.30;92.11
80335;BME280;69653;52.674;13.574;2023-07-22T04:23:45;100365.03;;;12.44;92.03
80335;BME280;69653;52.674;13.574;2023-07-22T04:26:11;100365.06;;;12.53;91.45
80335;BME280;69653;52.674;13.574;2023-07-22T04:28:36;100366.69;;;12.62;90.74
80335;BME280;69653;52.674;13.574;2023-07-22T04:31:02;100385.31;;;12.83;89.87
80335;BME280;69653;52.674;13.574;2023-07-22T04:33:29;100374.00;;;12.84;89.80
80335;BME280;69653;52.674;13.574;2023-07-22T04:35:57;100370.16;;;12.94;89.20
80335;BME280;69653;52.674;13.574;2023-07-22T04:38:22;100377.13;;;13.08;88.56
80335;BME280;69653;52.674;13.574;2023-07-22T04:40:48;100374.44;;;13.17;88.22
80335;BME280;69653;52.674;13.574;2023-07-22T04:43:13;100378.78;;;13.35;87.57
80335;BME280;69653;52.674;13.574;2023-07-22T04:45:38;100382.00;;;13.54;87.07
80335;BME280;69653;52.674;13.574;2023-07-22T04:48:07;100370.53;;;13.61;86.41
80335;BME280;69653;52.674;13.574;2023-07-22T04:50:32;100379.09;;;13.68;85.95
80335;BME280;69653;52.674;13.574;2023-07-22T04:52:58;100373.72;;;13.80;85.66
80335;BME280;69653;52.674;13.574;2023-07-22T04:55:23;100397.09;;;14.03;85.03
80335;BME280;69653;52.674;13.574;2023-07-22T04:57:49;100384.81;;;14.09;84.01
80335;BME280;69653;52.674;13.574;2023-07-22T05:00:16;100373.63;;;14.15;83.52
80335;BME280;69653;52.674;13.574;2023-07-22T05:02:43;100385.22;;;14.37;82.63
80335;BME280;69653;52.674;13.574;2023-07-22T05:05:12;100390.53;;;14.34;82.05
80335;BME280;69653;52.674;13.574;2023-07-22T05:07:38;100395.56;;;14.40;82.47
80335;BME280;69653;52.674;13.574;2023-07-22T05:10:03;100406.50;;;14.57;81.89
80335;BME280;69653;52.674;13.574;2023-07-22T05:12:29;100407.47;;;14.62;80.45
80335;BME280;69653;52.674;13.574;2023-07-22T05:14:54;100381.56;;;14.63;80.64
80335;BME280;69653;52.674;13.574;2023-07-22T05:17:19;100414.88;;;14.99;79.84
80335;BME280;69653;52.674;13.574;2023-07-22T05:19:45;100387.13;;;15.04;79.26
80335;BME280;69653;52.674;13.574;2023-07-22T05:22:10;100407.22;;;15.25;78.62
80335;BME280;69653;52.674;13.574;2023-07-22T05:24:35;100409.16;;;15.45;78.98
80335;BME280;69653;52.674;13.574;2023-07-22T05:27:01;100417.41;;;15.54;76.80
80335;BME280;69653;52.674;13.574;2023-07-22T05:29:26;100408.31;;;15.53;77.58
80335;BME280;69653;52.674;13.574;2023-07-22T05:31:51;100404.00;;;15.65;75.98
80335;BME280;69653;52.674;13.574;2023-07-22T05:34:17;100405.94;;;15.85;75.27
80335;BME280;69653;52.674;13.574;2023-07-22T05:36:42;100406.34;;;16.08;74.66
80335;BME280;69653;52.674;13.574;2023-07-22T05:39:08;100426.41;;;16.29;73.76
80335;BME280;69653;52.674;13.574;2023-07-22T05:41:33;100414.34;;;16.33;73.75
80335;BME280;69653;52.674;13.574;2023-07-22T05:43:59;100438.84;;;16.47;73.24
80335;BME280;69653;52.674;13.574;2023-07-22T05:46:24;100427.22;;;16.41;72.69
80335;BME280;69653;52.674;13.574;2023-07-22T05:48:50;100447.53;;;16.70;72.47
80335;BME280;69653;52.674;13.574;2023-07-22T05:51:15;100427.84;;;16.71;71.58
80335;BME280;69653;52.674;13.574;2023-07-22T05:53:41;100421.53;;;16.59;71.50
80335;BME280;69653;52.674;13.574;2023-07-22T05:56:07;100431.25;;;16.44;72.58
80335;BME280;69653;52.674;13.574;2023-07-22T05:58:32;100433.25;;;16.23;72.71
80335;BME280;69653;52.674;13.574;2023-07-22T06:00:57;100429.47;;;16.15;73.51
80335;BME280;69653;52.674;13.574;2023-07-22T06:03:23;100426.06;;;15.85;73.17
80335;BME280;69653;52.674;13.574;2023-07-22T06:05:48;100438.53;;;15.83;73.38
80335;BME280;69653;52.674;13.574;2023-07-22T06:08:14;100424.94;;;15.66;73.51
80335;BME280;69653;52.674;13.574;2023-07-22T06:10:40;100441.66;;;15.81;73.89
80335;BME280;69653;52.674;13.574;2023-07-22T06:13:06;100438.72;;;15.98;72.74
80335;BME280;69653;52.674;13.574;2023-07-22T06:15:32;100429.06;;;16.37;71.27
80335;BME280;69653;52.674;13.574;2023-07-22T06:17:58;100422.47;;;16.75;70.18
80335;BME280;69653;52.674;13.574;2023-07-22T06:20:23;100432.69;;;17.11;68.66
80335;BME280;69653;52.674;13.574;2023-07-22T06:22:49;100444.88;;;17.22;68.51
80335;BME280;69653;52.674;13.574;2023-07-22T06:25:14;100443.94;;;17.30;67.46
80335;BME280;69653;52.674;13.574;2023-07-22T06:27:39;100467.97;;;17.93;66.42
80335;BME280;69653;52.674;13.574;2023-07-22T06:30:05;100462.25;;;18.30;64.80
80335;BME280;69653;52.674;13.574;2023-07-22T06:32:31;100450.72;;;18.56;63.16
80335;BME280;69653;52.674;13.574;2023-07-22T06:34:57;100452.50;;;18.20;63.56
80335;BME280;69653;52.674;13.574;2023-07-22T06:37:23;100448.50;;;18.33;63.40
80335;BME280;69653;52.674;13.574;2023-07-22T06:39:48;100450.13;;;18.34;64.01
80335;BME280;69653;52.674;13.574;2023-07-22T06:42:14;100444.03;;;18.57;62.84
80335;BME280;69653;52.674;13.574;2023-07-22T06:44:39;100452.25;;;18.53;63.37
80335;BME280;69653;52.674;13.574;2023-07-22T06:47:05;100443.72;;;18.77;61.82
80335;BME280;69653;52.674;13.574;2023-07-22T06:49:31;100458.00;;;18.95;60.78
80335;BME280;69653;52.674;13.574;2023-07-22T06:51:56;100432.31;;;18.63;60.63
80335;BME280;69653;52.674;13.574;2023-07-22T06:54:21;100466.06;;;19.00;60.22
80335;BME280;69653;52.674;13.574;2023-07-22T06:56:47;100445.44;;;18.98;60.02
80335;BME280;69653;52.674;13.574;2023-07-22T06:59:12;100457.16;;;19.42;59.12
80335;BME280;69653;52.674;13.574;2023-07-22T07:01:37;100453.25;;;19.11;58.87
80335;BME280;69653;52.674;13.574;2023-07-22T07:04:03;100455.44;;;19.53;57.90
80335;BME280;69653;52.674;13.574;2023-07-22T07:06:28;100452.84;;;19.44;57.46
80335;BME280;69653;52.674;13.574;2023-07-22T07:08:54;100469.06;;;19.26;58.74
80335;BME280;69653;52.674;13.574;2023-07-22T07:11:20;100466.25;;;18.92;59.53
80335;BME280;69653;52.674;13.574;2023-07-22T07:13:45;100459.50;;;19.59;57.04
80335;BME280;69653;52.674;13.574;2023-07-22T07:16:30;100469.06;;;20.19;56.06
80335;BME280;69653;52.674;13.574;2023-07-22T07:18:57;100460.53;;;20.08;55.52
80335;BME280;69653;52.674;13.574;2023-07-22T07:21:23;100464.41;;;20.04;54.57
80335;BME280;69653;52.674;13.574;2023-07-22T07:23:49;100490.78;;;20.32;54.94
80335;BME280;69653;52.674;13.574;2023-07-22T07:26:15;100455.91;;;20.54;53.36
80335;BME280;69653;52.674;13.574;2023-07-22T07:28:40;100479.69;;;20.55;52.55
80335;BME280;69653;52.674;13.574;2023-07-22T07:31:06;100474.28;;;20.20;53.30
80335;BME280;69653;52.674;13.574;2023-07-22T07:33:31;100469.38;;;19.56;54.42
80335;BME280;69653;52.674;13.574;2023-07-22T07:35:56;100472.53;;;19.39;54.77
80335;BME280;69653;52.674;13.574;2023-07-22T07:38:22;100469.25;;;19.18;55.63
80335;BME280;69653;52.674;13.574;2023-07-22T07:40:56;100477.72;;;19.75;54.83
80335;BME280;69653;52.674;13.574;2023-07-22T07:43:21;100496.50;;;20.01;53.02
80335;BME280;69653;52.674;13.574;2023-07-22T07:45:46;100491.50;;;19.72;52.68
80335;BME280;69653;52.674;13.574;2023-07-22T07:48:12;100484.34;;;19.71;53.03
80335;BME280;69653;52.674;13.574;2023-07-22T07:50:37;100477.28;;;19.38;54.50
80335;BME280;69653;52.674;13.574;2023-07-22T07:53:03;100514.75;;;19.48;54.49
80335;BME280;69653;52.674;13.574;2023-07-22T07:55:28;100488.97;;;19.48;53.96
80335;BME280;69653;52.674;13.574;2023-07-22T07:57:54;100482.16;;;18.95;55.13
80335;BME280;69653;52.674;13.574;2023-07-22T08:00:19;100503.16;;;19.43;55.30
80335;BME280;69653;52.674;13.574;2023-07-22T08:02:46;100493.31;;;20.22;54.61
80335;BME280;69653;52.674;13.574;2023-07-22T08:05:11;100499.28;;;20.40;53.26
80335;BME280;69653;52.674;13.574;2023-07-22T08:07:38;100514.53;;;20.49;51.18
80335;BME280;69653;52.674;13.574;2023-07-22T08:10:04;100513.72;;;20.29;51.04
80335;BME280;69653;52.674;13.574;2023-07-22T08:12:30;100525.81;;;20.60;51.20
80335;BME280;69653;52.674;13.574;2023-07-22T08:14:55;100501.06;;;20.51;51.00
80335;BME280;69653;52.674;13.574;2023-07-22T08:17:21;100531.56;;;20.70;52.20
80335;BME280;69653;52.674;13.574;2023-07-22T08:19:47;100501.66;;;20.41;50.94
80335;BME280;69653;52.674;13.574;2023-07-22T08:22:12;100498.53;;;19.85;51.52
80335;BME280;69653;52.674;13.574;2023-07-22T08:24:37;100491.66;;;19.28;52.96
80335;BME280;69653;52.674;13.574;2023-07-22T08:27:03;100530.16;;;20.00;52.25
80335;BME280;69653;52.674;13.574;2023-07-22T08:29:28;100532.28;;;20.87;50.31
80335;BME280;69653;52.674;13.574;2023-07-22T08:31:54;100505.94;;;21.03;48.46
80335;BME280;69653;52.674;13.574;2023-07-22T08:34:19;100510.38;;;21.08;48.83
80335;BME280;69653;52.674;13.574;2023-07-22T08:36:44;100530.16;;;21.52;48.19
80335;BME280;69653;52.674;13.574;2023-07-22T08:39:10;100528.72;;;21.88;46.91
80335;BME280;69653;52.674;13.574;2023-07-22T08:41:36;100518.28;;;21.81;46.11
80335;BME280;69653;52.674;13.574;2023-07-22T08:44:01;100519.66;;;20.70;48.29
80335;BME280;69653;52.674;13.574;2023-07-22T08:46:30;100523.31;;;20.74;49.36
80335;BME280;69653;52.674;13.574;2023-07-22T08:49:00;100517.13;;;19.84;50.53
80335;BME280;69653;52.674;13.574;2023-07-22T08:51:26;100516.56;;;20.14;51.78
80335;BME280;69653;52.674;13.574;2023-07-22T08:53:54;100519.31;;;20.94;48.69
80335;BME280;69653;52.674;13.574;2023-07-22T08:56:24;100523.97;;;21.36;45.49
80335;BME280;69653;52.674;13.574;2023-07-22T08:58:51;100538.09;;;21.76;46.39
80335;BME280;69653;52.674;13.574;2023-07-22T09:01:16;100541.94;;;22.24;45.39
80335;BME280;69653;52.674;13.574;2023-07-22T09:03:42;100548.97;;;22.48;44.85
80335;BME280;69653;52.674;13.574;2023-07-22T09:06:08;100533.53;;;21.64;44.86
80335;BME280;69653;52.674;13.574;2023-07-22T09:08:34;100533.31;;;21.01;46.54
80335;BME280;69653;52.674;13.574;2023-07-22T09:10:59;100531.06;;;20.42;48.17
80335;BME280;69653;52.674;13.574;2023-07-22T09:13:26;100519.56;;;20.24;49.05
80335;BME280;69653;52.674;13.574;2023-07-22T09:15:52;100544.84;;;20.58;49.90
80335;BME280;69653;52.674;13.574;2023-07-22T09:18:18;100526.47;;;20.72;49.06
80335;BME280;69653;52.674;13.574;2023-07-22T09:20:43;100533.28;;;21.20;47.25
80335;BME280;69653;52.674;13.574;2023-07-22T09:23:09;100540.72;;;21.39;47.19
80335;BME280;69653;52.674;13.574;2023-07-22T09:25:34;100530.47;;;20.98;46.23
80335;BME280;69653;52.674;13.574;2023-07-22T09:27:59;100533.44;;;21.08;46.87
80335;BME280;69653;52.674;13.574;2023-07-22T09:30:36;100540.13;;;21.26;46.61
80335;BME280;69653;52.674;13.574;2023-07-22T09:33:04;100535.50;;;21.11;45.67
80335;BME280;69653;52.674;13.574;2023-07-22T09:35:46;100534.63;;;21.56;45.77
80335;BME280;69653;52.674;13.574;2023-07-22T09:38:13;100527.25;;;21.97;43.66
80335;BME280;69653;52.674;13.574;2023-07-22T09:40:41;100528.78;;;21.91;43.19
80335;BME280;69653;52.674;13.574;2023-07-22T09:43:09;100532.97;;;21.82;44.66
80335;BME280;69653;52.674;13.574;2023-07-22T09:45:35;100548.56;;;21.60;43.81
80335;BME280;69653;52.674;13.574;2023-07-22T09:48:00;100550.56;;;21.59;44.60
80335;BME280;69653;52.674;13.574;2023-07-22T09:50:27;100534.09;;;21.21;44.14
80335;BME280;69653;52.674;13.574;2023-07-22T09:52:57;100519.75;;;21.45;43.49
80335;BME280;69653;52.674;13.574;2023-07-22T09:55:30;100523.00;;;21.77;43.25
80335;BME280;69653;52.674;13.574;2023-07-22T09:58:03;100539.94;;;22.58;42.18
80335;BME280;69653;52.674;13.574;2023-07-22T10:00:34;100528.41;;;22.96;41.04
80335;BME280;69653;52.674;13.574;2023-07-22T10:03:02;100519.91;;;23.30;42.45
80335;BME280;69653;52.674;13.574;2023-07-22T10:05:29;100528.19;;;22.75;41.16
80335;BME280;69653;52.674;13.574;2023-07-22T10:07:58;100515.19;;;22.93;42.51
80335;BME280;69653;52.674;13.574;2023-07-22T10:12:57;100521.19;;;24.08;39.76
80335;BME280;69653;52.674;13.574;2023-07-22T10:15:24;100557.28;;;24.41;39.34
80335;BME280;69653;52.674;13.574;2023-07-22T10:17:50;100539.34;;;23.70;39.04
80335;BME280;69653;52.674;13.574;2023-07-22T10:20:16;100532.59;;;23.24;39.77
80335;BME280;69653;52.674;13.574;2023-07-22T10:22:46;100538.94;;;23.17;41.28
80335;BME280;69653;52.674;13.574;2023-07-22T10:25:14;100532.53;;;23.16;39.71
80335;BME280;69653;52.674;13.574;2023-07-22T10:27:40;100553.00;;;22.87;40.84
80335;BME280;69653;52.674;13.574;2023-07-22T10:30:16;100538.09;;;22.69;42.52
80335;BME280;69653;52.674;13.574;2023-07-22T10:32:44;100560.34;;;23.06;40.44
80335;BME280;69653;52.674;13.574;2023-07-22T10:35:40;100554.81;;;23.13;40.44
80335;BME280;69653;52.674;13.574;2023-07-22T10:38:08;100552.22;;;23.38;38.65
80335;BME280;69653;52.674;13.574;2023-07-22T10:40:45;100535.63;;;23.52;38.32
80335;BME280;69653;52.674;13.574;2023-07-22T10:43:11;100548.53;;;23.71;37.61
80335;BME280;69653;52.674;13.574;2023-07-22T10:45:41;100546.03;;;24.31;36.63
80335;BME280;69653;52.674;13.574;2023-07-22T10:48:09;100544.19;;;23.84;38.44
80335;BME280;69653;52.674;13.574;2023-07-22T10:50:48;100523.72;;;23.62;37.86
80335;BME280;69653;52.674;13.574;2023-07-22T11:06:38;100517.69;;;23.56;38.11
80335;BME280;69653;52.674;13.574;2023-07-22T11:09:04;100528.13;;;23.59;39.42
80335;BME280;69653;52.674;13.574;2023-07-22T11:11:37;100542.22;;;23.84;38.07
80335;BME280;69653;52.674;13.574;2023-07-22T11:14:48;100534.91;;;23.62;38.64
80335;BME280;69653;52.674;13.574;2023-07-22T11:17:14;100513.00;;;23.71;38.62
80335;BME280;69653;52.674;13.574;2023-07-22T11:19:40;100508.78;;;24.02;36.72
80335;BME280;69653;52.674;13.574;2023-07-22T11:22:06;100523.31;;;24.39;35.62
80335;BME280;69653;52.674;13.574;2023-07-22T11:24:33;100514.91;;;24.29;35.64
80335;BME280;69653;52.674;13.574;2023-07-22T11:27:07;100501.03;;;24.78;33.60
80335;BME280;69653;52.674;13.574;2023-07-22T11:29:33;100506.63;;;24.68;35.94
80335;BME280;69653;52.674;13.574;2023-07-22T11:31:59;100516.13;;;24.38;36.40
80335;BME280;69653;52.674;13.574;2023-07-22T11:34:25;100511.72;;;24.34;35.68
80335;BME280;69653;52.674;13.574;2023-07-22T11:36:52;100518.56;;;24.50;36.20
80335;BME280;69653;52.674;13.574;2023-07-22T11:39:20;100534.16;;;24.66;36.46
80335;BME280;69653;52.674;13.574;2023-07-22T11:41:46;100530.09;;;24.38;35.72
80335;BME280;69653;52.674;13.574;2023-07-22T11:44:14;100515.25;;;24.17;36.31
80335;BME280;69653;52.674;13.574;2023-07-22T11:47:02;100534.81;;;24.20;35.82
80335;BME280;69653;52.674;13.574;2023-07-22T11:49:40;100497.78;;;23.58;35.33
80335;BME280;69653;52.674;13.574;2023-07-22T11:52:17;100512.97;;;23.13;36.66
80335;BME280;69653;52.674;13.574;2023-07-22T11:54:44;100522.50;;;23.08;37.56
80335;BME280;69653;52.674;13.574;2023-07-22T11:57:17;100521.09;;;22.81;36.79
80335;BME280;69653;52.674;13.574;2023-07-22T11:59:44;100539.66;;;23.07;37.28
80335;BME280;69653;52.674;13.574;2023-07-22T12:02:15;100531.94;;;22.93;37.24
80335;BME280;69653;52.674;13.574;2023-07-22T12:04:42;100504.63;;;22.69;37.91
80335;BME280;69653;52.674;13.574;2023-07-22T12:07:24;100513.00;;;22.69;38.38
80335;BME280;69653;52.674;13.574;2023-07-22T12:09:50;100541.78;;;22.80;38.73
80335;BME280;69653;52.674;13.574;2023-07-22T12:12:16;100519.53;;;22.50;37.30
80335;BME280;69653;52.674;13.574;2023-07-22T12:14:41;100515.00;;;22.02;37.77
80335;BME280;69653;52.674;13.574;2023-07-22T12:17:08;100536.16;;;21.80;38.30
80335;BME280;69653;52.674;13.574;2023-07-22T12:19:34;100530.00;;;21.67;38.33
80335;BME280;69653;52.674;13.574;2023-07-22T12:22:00;100517.13;;;21.56;38.82
80335;BME280;69653;52.674;13.574;2023-07-22T12:24:27;100511.91;;;21.51;39.42
80335;BME280;69653;52.674;13.574;2023-07-22T12:26:52;100516.69;;;21.80;39.96
80335;BME280;69653;52.674;13.574;2023-07-22T12:29:18;100507.97;;;21.85;38.71
80335;BME280;69653;52.674;13.574;2023-07-22T12:31:43;100508.50;;;21.91;38.12
80335;BME280;69653;52.674;13.574;2023-07-22T12:34:08;100509.31;;;21.91;37.68
80335;BME280;69653;52.674;13.574;2023-07-22T12:36:34;100512.72;;;22.11;39.41
80335;BME280;69653;52.674;13.574;2023-07-22T12:38:59;100515.16;;;22.16;37.28
80335;BME280;69653;52.674;13.574;2023-07-22T12:41:24;100512.50;;;22.63;37.59
80335;BME280;69653;52.674;13.574;2023-07-22T12:43:50;100504.03;;;22.93;37.73
80335;BME280;69653;52.674;13.574;2023-07-22T12:46:15;100496.19;;;23.06;37.00
80335;BME280;69653;52.674;13.574;2023-07-22T12:48:41;100485.94;;;23.20;36.83
80335;BME280;69653;52.674;13.574;2023-07-22T12:51:06;100511.94;;;23.32;35.55
80335;BME280;69653;52.674;13.574;2023-07-22T12:53:32;100509.34;;;23.05;35.49